sensor_id;sensor_type;location;lat;lon;timestamp;temperature;humidity
2757;DHT22;1386;50.862;6.494;2022-07-23T00:00:22;19.20;99.90
2757;DHT22;1386;50.862;6.494;2022-07-23T00:02:49;19.20;99.90
2757;DHT22;1386;50.862;6.494;2022-07-23T00:05:16;19.10;99.90
2757;DHT22;1386;50.862;6.494;2022-07-23T00:07:42;19.10;99.90
2757;DHT22;1386;50.862;6.494;2022-07-23T00:10:09;19.10;99.90
2757;DHT22;1386;50.862;6.494;2022-07-23T00:12:37;19.10;99.90
2757;DHT22;1386;50.862;6.494;2022-07-23T00:15:06;19.10;99.90
2757;DHT22;1386;50.862;6.494;2022-07-23T00:17:34;19.00;99.90
2757;DHT22;1386;50.862;6.494;2022-07-23T00:20:01;19.00;99.90
2757;DHT22;1386;50.862;6.494;2022-07-23T00:22:28;19.00;99.90
2757;DHT22;1386;50.862;6.494;2022-07-23T00:24:55;19.00;99.90
2757;DHT22;1386;50.862;6.494;2022-07-23T00:27:22;19.00;99.90
2757;DHT22;1386;50.862;6.494;2022-07-23T00:29:49;19.00;99.90
2757;DHT22;1386;50.862;6.494;2022-07-23T00:32:17;19.00;99.90
2757;DHT22;1386;50.862;6.494;2022-07-23T00:34:44;18.90;99.90
2757;DHT22;1386;50.862;6.494;2022-07-23T00:37:10;19.00;99.90
2757;DHT22;1386;50.862;6.494;2022-07-23T00:39:37;19.00;99.90
2757;DHT22;1386;50.862;6.494;2022-07-23T00:42:04;18.90;99.90
2757;DHT22;1386;50.862;6.494;2022-07-23T00:44:31;18.90;99.90
2757;DHT22;1386;50.862;6.494;2022-07-23T00:46:59;18.90;99.90
2757;DHT22;1386;50.862;6.494;2022-07-23T00:49:29;18.90;99.90
2757;DHT22;1386;50.862;6.494;2022-07-23T00:51:57;18.90;99.90
2757;DHT22;1386;50.862;6.494;2022-07-23T00:54:25;18.90;99.90
2757;DHT22;1386;50.862;6.494;2022-07-23T00:56:53;18.90;99.90
2757;DHT22;1386;50.862;6.494;2022-07-23T00:59:20;18.80;99.90
2757;DHT22;1386;50.862;6.494;2022-07-23T01:01:47;18.80;99.90
2757;DHT22;1386;50.862;6.494;2022-07-23T01:04:14;18.80;99.90
2757;DHT22;1386;50.862;6.494;2022-07-23T01:06:43;18.80;99.90
2757;DHT22;1386;50.862;6.494;2022-07-23T01:09:10;18.80;99.90
2757;DHT22;1386;50.862;6.494;2022-07-23T01:11:37;18.80;99.90
2757;DHT22;1386;50.862;6.494;2022-07-23T01:14:11;18.80;99.90
2757;DHT22;1386;50.862;6.494;2022-07-23T01:16:39;18.80;99.90
2757;DHT22;1386;50.862;6.494;2022-07-23T01:19:07;18.80;99.90
2757;DHT22;1386;50.862;6.494;2022-07-23T01:21:37;18.80;99.90
2757;DHT22;1386;50.862;6.494;2022-07-23T01:24:06;18.70;99.90
2757;DHT22;1386;50.862;6.494;2022-07-23T01:26:34;18.60;99.90
2757;DHT22;1386;50.862;6.494;2022-07-23T01:29:01;18.50;99.90
2757;DHT22;1386;50.862;6.494;2022-07-23T01:31:28;18.50;99.90
2757;DHT22;1386;50.862;6.494;2022-07-23T01:33:55;18.40;99.90
2757;DHT22;1386;50.862;6.494;2022-07-23T01:36:22;18.40;99.90
2757;DHT22;1386;50.862;6.494;2022-07-23T01:38:49;18.30;99.90
2757;DHT22;1386;50.862;6.494;2022-07-23T01:41:17;18.30;99.90
2757;DHT22;1386;50.862;6.494;2022-07-23T01:43:44;18.30;99.90
2757;DHT22;1386;50.862;6.494;2022-07-23T01:46:11;18.30;99.90
2757;DHT22;1386;50.862;6.494;2022-07-23T01:48:38;18.20;99.90
2757;DHT22;1386;50.862;6.494;2022-07-23T01:51:05;18.20;99.90
2757;DHT22;1386;50.862;6.494;2022-07-23T01:53:32;18.20;99.90
2757;DHT22;1386;50.862;6.494;2022-07-23T01:55:59;18.20;99.90
2757;DHT22;1386;50.862;6.494;2022-07-23T01:58:28;18.20;99.90
2757;DHT22;1386;50.862;6.494;2022-07-23T02:00:55;18.10;99.90
2757;DHT22;1386;50.862;6.494;2022-07-23T02:03:22;18.10;99.90
2757;DHT22;1386;50.862;6.494;2022-07-23T02:05:49;18.00;99.90
2757;DHT22;1386;50.862;6.494;2022-07-23T02:08:17;18.00;99.90
2757;DHT22;1386;50.862;6.494;2022-07-23T02:10:44;18.00;99.90
2757;DHT22;1386;50.862;6.494;2022-07-23T02:13:11;17.90;99.90
2757;DHT22;1386;50.862;6.494;2022-07-23T02:15:40;17.90;99.90
2757;DHT22;1386;50.862;6.494;2022-07-23T02:18:07;17.90;99.90
2757;DHT22;1386;50.862;6.494;2022-07-23T02:20:33;17.90;99.90
2757;DHT22;1386;50.862;6.494;2022-07-23T02:23:04;17.80;99.90
2757;DHT22;1386;50.862;6.494;2022-07-23T02:25:32;17.80;99.90
2757;DHT22;1386;50.862;6.494;2022-07-23T02:27:59;17.80;99.90
2757;DHT22;1386;50.862;6.494;2022-07-23T02:30:26;17.70;99.90
2757;DHT22;1386;50.862;6.494;2022-07-23T02:32:54;17.70;99.90
2757;DHT22;1386;50.862;6.494;2022-07-23T02:35:21;17.70;99.90
2757;DHT22;1386;50.862;6.494;2022-07-23T02:37:48;17.70;99.90
2757;DHT22;1386;50.862;6.494;2022-07-23T02:40:15;17.70;99.90
2757;DHT22;1386;50.862;6.494;2022-07-23T02:42:42;17.60;99.90
2757;DHT22;1386;50.862;6.494;2022-07-23T02:45:09;17.60;99.90
2757;DHT22;1386;50.862;6.494;2022-07-23T02:47:36;17.60;99.90
2757;DHT22;1386;50.862;6.494;2022-07-23T02:50:05;17.60;99.90
2757;DHT22;1386;50.862;6.494;2022-07-23T02:52:32;17.50;99.90
2757;DHT22;1386;50.862;6.494;2022-07-23T02:54:59;17.50;99.90
2757;DHT22;1386;50.862;6.494;2022-07-23T02:57:26;17.50;99.90
2757;DHT22;1386;50.862;6.494;2022-07-23T02:59:53;17.50;99.90
2757;DHT22;1386;50.862;6.494;2022-07-23T03:02:20;17.50;99.90
2757;DHT22;1386;50.862;6.494;2022-07-23T03:04:46;17.50;99.90
2757;DHT22;1386;50.862;6.494;2022-07-23T03:07:16;17.50;99.90
2757;DHT22;1386;50.862;6.494;2022-07-23T03:09:42;17.40;99.90
2757;DHT22;1386;50.862;6.494;2022-07-23T03:12:09;17.40;99.90
2757;DHT22;1386;50.862;6.494;2022-07-23T03:14:36;17.40;99.90
2757;DHT22;1386;50.862;6.494;2022-07-23T03:17:03;17.40;99.90
2757;DHT22;1386;50.862;6.494;2022-07-23T03:19:30;17.40;99.90
2757;DHT22;1386;50.862;6.494;2022-07-23T03:21:57;17.30;99.90
2757;DHT22;1386;50.862;6.494;2022-07-23T03:24:25;17.30;99.90
2757;DHT22;1386;50.862;6.494;2022-07-23T03:27:13;17.30;99.90
2757;DHT22;1386;50.862;6.494;2022-07-23T03:29:40;17.30;99.90
2757;DHT22;1386;50.862;6.494;2022-07-23T03:32:07;17.30;99.90
2757;DHT22;1386;50.862;6.494;2022-07-23T03:34:33;17.30;99.90
2757;DHT22;1386;50.862;6.494;2022-07-23T03:37:00;17.20;99.90
2757;DHT22;1386;50.862;6.494;2022-07-23T03:39:28;17.20;99.90
2757;DHT22;1386;50.862;6.494;2022-07-23T03:41:56;17.20;99.90
2757;DHT22;1386;50.862;6.494;2022-07-23T03:44:23;17.20;99.90
2757;DHT22;1386;50.862;6.494;2022-07-23T03:46:50;17.10;99.90
2757;DHT22;1386;50.862;6.494;2022-07-23T03:49:17;17.10;99.90
2757;DHT22;1386;50.862;6.494;2022-07-23T03:51:44;17.10;99.90
2757;DHT22;1386;50.862;6.494;2022-07-23T03:54:10;17.10;99.90
2757;DHT22;1386;50.862;6.494;2022-07-23T03:56:39;17.10;99.90
2757;DHT22;1386;50.862;6.494;2022-07-23T03:59:06;17.00;99.90
2757;DHT22;1386;50.862;6.494;2022-07-23T04:01:33;17.00;99.90
2757;DHT22;1386;50.862;6.494;2022-07-23T04:03:59;17.00;99.90
2757;DHT22;1386;50.862;6.494;2022-07-23T04:06:26;16.90;99.90
2757;DHT22;1386;50.862;6.494;2022-07-23T04:08:53;16.90;99.90
2757;DHT22;1386;50.862;6.494;2022-07-23T04:11:20;16.90;99.90
2757;DHT22;1386;50.862;6.494;2022-07-23T04:13:49;16.90;99.90
2757;DHT22;1386;50.862;6.494;2022-07-23T04:16:15;16.90;99.90
2757;DHT22;1386;50.862;6.494;2022-07-23T04:18:42;16.90;99.90
2757;DHT22;1386;50.862;6.494;2022-07-23T04:21:09;16.90;99.90
2757;DHT22;1386;50.862;6.494;2022-07-23T04:23:36;16.90;99.90
2757;DHT22;1386;50.862;6.494;2022-07-23T04:26:03;16.90;99.90
2757;DHT22;1386;50.862;6.494;2022-07-23T04:28:30;16.90;99.90
2757;DHT22;1386;50.862;6.494;2022-07-23T04:30:58;16.90;99.90
2757;DHT22;1386;50.862;6.494;2022-07-23T04:33:25;16.90;99.90
2757;DHT22;1386;50.862;6.494;2022-07-23T04:35:52;16.90;99.90
2757;DHT22;1386;50.862;6.494;2022-07-23T04:38:19;16.90;99.90
2757;DHT22;1386;50.862;6.494;2022-07-23T04:40:46;16.90;99.90
2757;DHT22;1386;50.862;6.494;2022-07-23T04:43:13;16.90;99.90
2757;DHT22;1386;50.862;6.494;2022-07-23T04:45:40;16.90;99.90
2757;DHT22;1386;50.862;6.494;2022-07-23T04:48:08;16.90;99.90
2757;DHT22;1386;50.862;6.494;2022-07-23T04:50:35;16.90;99.90
2757;DHT22;1386;50.862;6.494;2022-07-23T04:53:02;16.90;99.90
2757;DHT22;1386;50.862;6.494;2022-07-23T04:55:29;16.90;99.90
2757;DHT22;1386;50.862;6.494;2022-07-23T04:57:55;16.90;99.90
2757;DHT22;1386;50.862;6.494;2022-07-23T05:00:22;16.90;99.90
2757;DHT22;1386;50.862;6.494;2022-07-23T05:02:49;16.90;99.90
2757;DHT22;1386;50.862;6.494;2022-07-23T05:05:17;16.90;99.90
2757;DHT22;1386;50.862;6.494;2022-07-23T05:07:44;16.90;99.90
2757;DHT22;1386;50.862;6.494;2022-07-23T05:10:11;16.90;99.90
2757;DHT22;1386;50.862;6.494;2022-07-23T05:12:38;16.90;99.90
2757;DHT22;1386;50.862;6.494;2022-07-23T05:15:05;16.90;99.90
2757;DHT22;1386;50.862;6.494;2022-07-23T05:17:32;16.90;99.90
2757;DHT22;1386;50.862;6.494;2022-07-23T05:19:59;17.00;99.90
2757;DHT22;1386;50.862;6.494;2022-07-23T05:22:27;17.00;99.90
2757;DHT22;1386;50.862;6.494;2022-07-23T05:24:54;17.00;99.90
2757;DHT22;1386;50.862;6.494;2022-07-23T05:27:21;17.10;99.90
2757;DHT22;1386;50.862;6.494;2022-07-23T05:29:48;17.10;99.90
2757;DHT22;1386;50.862;6.494;2022-07-23T05:32:15;17.20;99.90
2757;DHT22;1386;50.862;6.494;2022-07-23T05:34:42;17.20;99.90
2757;DHT22;1386;50.862;6.494;2022-07-23T05:37:09;17.20;99.90
2757;DHT22;1386;50.862;6.494;2022-07-23T05:40:15;17.20;99.90
2757;DHT22;1386;50.862;6.494;2022-07-23T05:42:53;17.20;99.90
2757;DHT22;1386;50.862;6.494;2022-07-23T05:45:26;17.30;99.90
2757;DHT22;1386;50.862;6.494;2022-07-23T05:47:54;17.40;99.90
2757;DHT22;1386;50.862;6.494;2022-07-23T05:50:21;17.40;99.90
2757;DHT22;1386;50.862;6.494;2022-07-23T05:52:48;17.40;99.90
2757;DHT22;1386;50.862;6.494;2022-07-23T05:55:16;17.50;99.90
2757;DHT22;1386;50.862;6.494;2022-07-23T05:57:43;17.50;99.90
2757;DHT22;1386;50.862;6.494;2022-07-23T06:00:11;17.50;99.90
2757;DHT22;1386;50.862;6.494;2022-07-23T06:02:38;17.50;99.90
2757;DHT22;1386;50.862;6.494;2022-07-23T06:05:06;17.60;99.90
2757;DHT22;1386;50.862;6.494;2022-07-23T06:07:34;17.60;99.90
2757;DHT22;1386;50.862;6.494;2022-07-23T06:10:01;17.70;99.90
2757;DHT22;1386;50.862;6.494;2022-07-23T06:12:29;17.70;99.90
2757;DHT22;1386;50.862;6.494;2022-07-23T06:14:59;17.70;99.90
2757;DHT22;1386;50.862;6.494;2022-07-23T06:17:39;17.70;99.90
2757;DHT22;1386;50.862;6.494;2022-07-23T06:20:07;17.80;99.90
2757;DHT22;1386;50.862;6.494;2022-07-23T06:22:34;17.80;99.90
2757;DHT22;1386;50.862;6.494;2022-07-23T06:25:02;17.90;99.90
2757;DHT22;1386;50.862;6.494;2022-07-23T06:27:30;17.90;99.90
2757;DHT22;1386;50.862;6.494;2022-07-23T06:29:57;17.90;99.90
2757;DHT22;1386;50.862;6.494;2022-07-23T06:32:24;17.90;99.90
2757;DHT22;1386;50.862;6.494;2022-07-23T06:34:51;18.00;99.90
2757;DHT22;1386;50.862;6.494;2022-07-23T06:37:18;18.00;99.90
2757;DHT22;1386;50.862;6.494;2022-07-23T06:39:45;18.10;99.90
2757;DHT22;1386;50.862;6.494;2022-07-23T06:42:12;18.20;99.90
2757;DHT22;1386;50.862;6.494;2022-07-23T06:44:40;18.20;99.90
2757;DHT22;1386;50.862;6.494;2022-07-23T06:47:07;18.30;99.90
2757;DHT22;1386;50.862;6.494;2022-07-23T06:49:34;18.30;99.90
2757;DHT22;1386;50.862;6.494;2022-07-23T06:52:01;18.30;99.90
2757;DHT22;1386;50.862;6.494;2022-07-23T06:54:28;18.40;99.90
2757;DHT22;1386;50.862;6.494;2022-07-23T06:56:56;18.40;99.90
2757;DHT22;1386;50.862;6.494;2022-07-23T06:59:23;18.40;99.90
2757;DHT22;1386;50.862;6.494;2022-07-23T07:01:51;18.40;99.90
2757;DHT22;1386;50.862;6.494;2022-07-23T07:04:18;18.50;99.90
2757;DHT22;1386;50.862;6.494;2022-07-23T07:06:44;18.60;99.90
2757;DHT22;1386;50.862;6.494;2022-07-23T07:09:11;18.70;99.90
2757;DHT22;1386;50.862;6.494;2022-07-23T07:11:38;18.90;99.90
2757;DHT22;1386;50.862;6.494;2022-07-23T07:14:05;19.00;99.90
2757;DHT22;1386;50.862;6.494;2022-07-23T07:16:32;19.10;99.90
2757;DHT22;1386;50.862;6.494;2022-07-23T07:19:00;19.30;99.90
2757;DHT22;1386;50.862;6.494;2022-07-23T07:21:27;19.30;99.90
2757;DHT22;1386;50.862;6.494;2022-07-23T07:23:54;19.40;99.90
2757;DHT22;1386;50.862;6.494;2022-07-23T07:26:21;19.50;99.90
2757;DHT22;1386;50.862;6.494;2022-07-23T07:28:48;19.50;99.90
2757;DHT22;1386;50.862;6.494;2022-07-23T07:31:15;19.50;99.90
2757;DHT22;1386;50.862;6.494;2022-07-23T07:33:42;19.70;99.90
2757;DHT22;1386;50.862;6.494;2022-07-23T07:36:11;19.90;99.90
2757;DHT22;1386;50.862;6.494;2022-07-23T07:38:38;20.10;99.90
2757;DHT22;1386;50.862;6.494;2022-07-23T07:41:05;20.10;99.90
2757;DHT22;1386;50.862;6.494;2022-07-23T07:43:33;20.30;99.90
2757;DHT22;1386;50.862;6.494;2022-07-23T07:46:00;20.40;99.90
2757;DHT22;1386;50.862;6.494;2022-07-23T07:48:27;20.50;99.90
2757;DHT22;1386;50.862;6.494;2022-07-23T07:50:54;20.60;99.90
2757;DHT22;1386;50.862;6.494;2022-07-23T07:53:22;20.60;99.90
2757;DHT22;1386;50.862;6.494;2022-07-23T07:55:49;20.70;99.90
2757;DHT22;1386;50.862;6.494;2022-07-23T07:58:15;20.90;99.90
2757;DHT22;1386;50.862;6.494;2022-07-23T08:00:42;20.90;99.90
2757;DHT22;1386;50.862;6.494;2022-07-23T08:03:09;20.80;99.90
2757;DHT22;1386;50.862;6.494;2022-07-23T08:05:36;20.90;99.90
2757;DHT22;1386;50.862;6.494;2022-07-23T08:08:04;21.00;99.90
2757;DHT22;1386;50.862;6.494;2022-07-23T08:10:32;21.10;99.90
2757;DHT22;1386;50.862;6.494;2022-07-23T08:12:59;21.20;99.90
2757;DHT22;1386;50.862;6.494;2022-07-23T08:15:29;21.10;99.90
2757;DHT22;1386;50.862;6.494;2022-07-23T08:17:56;21.20;99.90
2757;DHT22;1386;50.862;6.494;2022-07-23T08:20:24;21.20;99.90
2757;DHT22;1386;50.862;6.494;2022-07-23T08:22:54;21.30;99.90
2757;DHT22;1386;50.862;6.494;2022-07-23T08:25:23;21.30;99.90
2757;DHT22;1386;50.862;6.494;2022-07-23T08:27:52;21.40;99.90
2757;DHT22;1386;50.862;6.494;2022-07-23T08:30:19;21.40;99.90
2757;DHT22;1386;50.862;6.494;2022-07-23T08:32:51;21.50;99.90
2757;DHT22;1386;50.862;6.494;2022-07-23T08:35:21;21.70;99.90
2757;DHT22;1386;50.862;6.494;2022-07-23T08:37:48;21.80;99.90
2757;DHT22;1386;50.862;6.494;2022-07-23T08:40:15;22.10;99.90
2757;DHT22;1386;50.862;6.494;2022-07-23T08:42:42;22.30;99.90
2757;DHT22;1386;50.862;6.494;2022-07-23T08:47:43;22.40;99.90
2757;DHT22;1386;50.862;6.494;2022-07-23T08:50:10;22.40;99.90
2757;DHT22;1386;50.862;6.494;2022-07-23T08:52:38;22.40;99.90
2757;DHT22;1386;50.862;6.494;2022-07-23T08:55:06;22.60;99.90
2757;DHT22;1386;50.862;6.494;2022-07-23T08:57:33;22.80;99.90
2757;DHT22;1386;50.862;6.494;2022-07-23T09:00:00;23.10;99.90
2757;DHT22;1386;50.862;6.494;2022-07-23T09:02:28;23.10;99.90
2757;DHT22;1386;50.862;6.494;2022-07-23T09:04:56;23.20;99.90
2757;DHT22;1386;50.862;6.494;2022-07-23T09:07:23;23.50;99.90
2757;DHT22;1386;50.862;6.494;2022-07-23T09:10:05;23.50;99.90
2757;DHT22;1386;50.862;6.494;2022-07-23T09:12:32;23.70;99.90
2757;DHT22;1386;50.862;6.494;2022-07-23T09:15:05;23.90;99.90
2757;DHT22;1386;50.862;6.494;2022-07-23T09:17:37;24.10;99.90
2757;DHT22;1386;50.862;6.494;2022-07-23T09:20:11;24.30;99.90
2757;DHT22;1386;50.862;6.494;2022-07-23T09:22:40;24.50;99.90
2757;DHT22;1386;50.862;6.494;2022-07-23T09:25:09;24.60;99.90
2757;DHT22;1386;50.862;6.494;2022-07-23T09:27:54;24.60;99.90
2757;DHT22;1386;50.862;6.494;2022-07-23T09:30:22;24.50;99.90
2757;DHT22;1386;50.862;6.494;2022-07-23T09:33:07;24.30;99.90
2757;DHT22;1386;50.862;6.494;2022-07-23T09:35:50;24.20;99.90
2757;DHT22;1386;50.862;6.494;2022-07-23T09:38:18;24.40;99.90
2757;DHT22;1386;50.862;6.494;2022-07-23T09:40:46;24.70;99.90
2757;DHT22;1386;50.862;6.494;2022-07-23T09:43:26;24.60;99.90
2757;DHT22;1386;50.862;6.494;2022-07-23T09:45:53;24.50;99.90
2757;DHT22;1386;50.862;6.494;2022-07-23T09:48:40;24.40;99.90
2757;DHT22;1386;50.862;6.494;2022-07-23T09:51:08;24.40;99.90
2757;DHT22;1386;50.862;6.494;2022-07-23T09:53:35;24.50;99.90
2757;DHT22;1386;50.862;6.494;2022-07-23T09:56:02;24.50;99.90
2757;DHT22;1386;50.862;6.494;2022-07-23T09:58:30;24.60;99.90
2757;DHT22;1386;50.862;6.494;2022-07-23T10:00:58;24.70;99.90
2757;DHT22;1386;50.862;6.494;2022-07-23T10:03:25;24.70;99.90
2757;DHT22;1386;50.862;6.494;2022-07-23T10:05:53;24.80;99.90
2757;DHT22;1386;50.862;6.494;2022-07-23T10:08:22;25.10;99.90
2757;DHT22;1386;50.862;6.494;2022-07-23T10:10:50;25.00;99.90
2757;DHT22;1386;50.862;6.494;2022-07-23T10:13:17;24.80;99.90
2757;DHT22;1386;50.862;6.494;2022-07-23T10:16:07;24.90;99.90
2757;DHT22;1386;50.862;6.494;2022-07-23T10:18:34;25.10;99.90
2757;DHT22;1386;50.862;6.494;2022-07-23T10:21:06;25.30;99.90
2757;DHT22;1386;50.862;6.494;2022-07-23T10:23:40;25.30;99.90
2757;DHT22;1386;50.862;6.494;2022-07-23T10:26:15;25.50;99.90
2757;DHT22;1386;50.862;6.494;2022-07-23T10:29:06;25.70;99.90
2757;DHT22;1386;50.862;6.494;2022-07-23T10:31:46;25.90;99.90
2757;DHT22;1386;50.862;6.494;2022-07-23T10:34:19;26.00;99.90
2757;DHT22;1386;50.862;6.494;2022-07-23T10:36:52;26.00;99.90
2757;DHT22;1386;50.862;6.494;2022-07-23T10:39:24;26.10;99.90
2757;DHT22;1386;50.862;6.494;2022-07-23T10:42:07;26.30;99.90
2757;DHT22;1386;50.862;6.494;2022-07-23T10:44:38;26.40;99.90
2757;DHT22;1386;50.862;6.494;2022-07-23T10:47:06;26.30;99.90
2757;DHT22;1386;50.862;6.494;2022-07-23T10:50:18;26.40;99.90
2757;DHT22;1386;50.862;6.494;2022-07-23T10:53:07;26.70;99.90
2757;DHT22;1386;50.862;6.494;2022-07-23T10:55:48;26.70;99.90
2757;DHT22;1386;50.862;6.494;2022-07-23T10:58:45;26.50;99.90
2757;DHT22;1386;50.862;6.494;2022-07-23T11:01:31;26.60;99.90
2757;DHT22;1386;50.862;6.494;2022-07-23T11:03:58;26.90;99.90
2757;DHT22;1386;50.862;6.494;2022-07-23T11:07:07;26.90;99.90
2757;DHT22;1386;50.862;6.494;2022-07-23T11:09:41;26.70;99.90
2757;DHT22;1386;50.862;6.494;2022-07-23T11:12:35;26.50;99.70
2757;DHT22;1386;50.862;6.494;2022-07-23T11:15:05;26.40;99.60
2757;DHT22;1386;50.862;6.494;2022-07-23T11:17:34;26.30;99.60
2757;DHT22;1386;50.862;6.494;2022-07-23T11:20:20;26.30;99.90
2757;DHT22;1386;50.862;6.494;2022-07-23T11:22:49;26.40;99.10
2757;DHT22;1386;50.862;6.494;2022-07-23T11:25:35;26.60;99.90
2757;DHT22;1386;50.862;6.494;2022-07-23T11:28:19;26.60;98.50
2757;DHT22;1386;50.862;6.494;2022-07-23T11:30:55;26.80;98.90
2757;DHT22;1386;50.862;6.494;2022-07-23T11:33:23;26.90;98.30
2757;DHT22;1386;50.862;6.494;2022-07-23T11:36:01;27.00;97.30
2757;DHT22;1386;50.862;6.494;2022-07-23T11:38:31;26.90;96.50
2757;DHT22;1386;50.862;6.494;2022-07-23T11:40:58;26.90;96.50
2757;DHT22;1386;50.862;6.494;2022-07-23T11:43:26;27.00;97.00
2757;DHT22;1386;50.862;6.494;2022-07-23T11:45:57;27.20;96.60
2757;DHT22;1386;50.862;6.494;2022-07-23T11:48:26;27.10;95.50
2757;DHT22;1386;50.862;6.494;2022-07-23T11:50:54;27.10;94.80
2757;DHT22;1386;50.862;6.494;2022-07-23T11:53:22;27.40;95.90
2757;DHT22;1386;50.862;6.494;2022-07-23T11:55:50;27.50;94.30
2757;DHT22;1386;50.862;6.494;2022-07-23T11:58:17;27.50;93.80
2757;DHT22;1386;50.862;6.494;2022-07-23T12:00:45;27.50;94.50
2757;DHT22;1386;50.862;6.494;2022-07-23T12:03:12;27.60;93.50
2757;DHT22;1386;50.862;6.494;2022-07-23T12:05:39;27.50;94.00
2757;DHT22;1386;50.862;6.494;2022-07-23T12:08:07;27.30;94.10
2757;DHT22;1386;50.862;6.494;2022-07-23T12:10:36;27.10;94.00
2757;DHT22;1386;50.862;6.494;2022-07-23T12:13:05;26.90;92.90
2757;DHT22;1386;50.862;6.494;2022-07-23T12:15:36;26.90;93.30
2757;DHT22;1386;50.862;6.494;2022-07-23T12:18:07;27.10;93.80
2757;DHT22;1386;50.862;6.494;2022-07-23T12:20:36;27.30;92.30
2757;DHT22;1386;50.862;6.494;2022-07-23T12:23:05;27.40;93.40
2757;DHT22;1386;50.862;6.494;2022-07-23T12:25:34;27.50;93.20
2757;DHT22;1386;50.862;6.494;2022-07-23T12:28:04;27.70;93.00
2757;DHT22;1386;50.862;6.494;2022-07-23T12:30:34;27.70;90.70
2757;DHT22;1386;50.862;6.494;2022-07-23T12:33:02;27.70;90.60
2757;DHT22;1386;50.862;6.494;2022-07-23T12:35:36;27.90;90.70
2757;DHT22;1386;50.862;6.494;2022-07-23T12:38:05;28.00;91.60
2757;DHT22;1386;50.862;6.494;2022-07-23T12:40:34;28.10;91.30
2757;DHT22;1386;50.862;6.494;2022-07-23T12:43:09;28.20;90.90
2757;DHT22;1386;50.862;6.494;2022-07-23T12:53:14;28.00;90.80
2757;DHT22;1386;50.862;6.494;2022-07-23T12:56:11;28.20;90.10
2757;DHT22;1386;50.862;6.494;2022-07-23T12:59:18;28.20;90.00
2757;DHT22;1386;50.862;6.494;2022-07-23T13:02:16;28.20;88.10
2757;DHT22;1386;50.862;6.494;2022-07-23T13:04:59;28.30;89.80
2757;DHT22;1386;50.862;6.494;2022-07-23T13:07:50;28.40;90.60
2757;DHT22;1386;50.862;6.494;2022-07-23T21:37:03;22.00;96.70
2757;DHT22;1386;50.862;6.494;2022-07-23T21:39:30;22.00;96.80
2757;DHT22;1386;50.862;6.494;2022-07-23T21:41:57;21.90;97.00
2757;DHT22;1386;50.862;6.494;2022-07-23T21:44:25;21.90;97.50
2757;DHT22;1386;50.862;6.494;2022-07-23T21:46:51;21.80;98.10
2757;DHT22;1386;50.862;6.494;2022-07-23T21:49:18;21.80;98.20
2757;DHT22;1386;50.862;6.494;2022-07-23T21:51:45;21.70;98.80
2757;DHT22;1386;50.862;6.494;2022-07-23T21:54:13;21.70;99.00
2757;DHT22;1386;50.862;6.494;2022-07-23T21:56:40;21.60;99.20
2757;DHT22;1386;50.862;6.494;2022-07-23T21:59:07;21.50;99.90
2757;DHT22;1386;50.862;6.494;2022-07-23T22:01:34;21.50;99.90
2757;DHT22;1386;50.862;6.494;2022-07-23T22:04:01;21.40;99.90
2757;DHT22;1386;50.862;6.494;2022-07-23T22:06:30;21.30;99.90
2757;DHT22;1386;50.862;6.494;2022-07-23T22:08:57;21.30;99.90
2757;DHT22;1386;50.862;6.494;2022-07-23T22:11:26;21.20;99.90
2757;DHT22;1386;50.862;6.494;2022-07-23T22:13:53;21.20;99.90
2757;DHT22;1386;50.862;6.494;2022-07-23T22:16:19;21.10;99.90
2757;DHT22;1386;50.862;6.494;2022-07-23T22:18:46;21.10;99.90
2757;DHT22;1386;50.862;6.494;2022-07-23T22:21:13;21.10;99.90
2757;DHT22;1386;50.862;6.494;2022-07-23T22:23:40;21.10;99.90
2757;DHT22;1386;50.862;6.494;2022-07-23T22:26:07;21.00;99.90
2757;DHT22;1386;50.862;6.494;2022-07-23T22:28:35;21.10;99.90
2757;DHT22;1386;50.862;6.494;2022-07-23T22:31:02;21.00;99.90
2757;DHT22;1386;50.862;6.494;2022-07-23T22:33:29;21.00;99.90
2757;DHT22;1386;50.862;6.494;2022-07-23T22:35:56;21.00;99.90
2757;DHT22;1386;50.862;6.494;2022-07-23T22:38:22;20.90;99.90
2757;DHT22;1386;50.862;6.494;2022-07-23T22:40:49;20.90;99.90
2757;DHT22;1386;50.862;6.494;2022-07-23T22:43:16;20.90;99.90
2757;DHT22;1386;50.862;6.494;2022-07-23T22:45:44;20.90;99.90
2757;DHT22;1386;50.862;6.494;2022-07-23T22:48:11;20.80;99.90
2757;DHT22;1386;50.862;6.494;2022-07-23T22:50:38;20.80;99.90
2757;DHT22;1386;50.862;6.494;2022-07-23T22:53:05;20.80;99.90
2757;DHT22;1386;50.862;6.494;2022-07-23T22:55:32;20.80;99.90
2757;DHT22;1386;50.862;6.494;2022-07-23T22:57:58;20.80;99.90
2757;DHT22;1386;50.862;6.494;2022-07-23T23:00:25;20.80;99.90
2757;DHT22;1386;50.862;6.494;2022-07-23T23:02:54;20.70;99.90
2757;DHT22;1386;50.862;6.494;2022-07-23T23:05:21;20.70;99.90
2757;DHT22;1386;50.862;6.494;2022-07-23T23:07:47;20.70;99.90
2757;DHT22;1386;50.862;6.494;2022-07-23T23:10:14;20.60;99.90
2757;DHT22;1386;50.862;6.494;2022-07-23T23:12:41;20.60;99.90
2757;DHT22;1386;50.862;6.494;2022-07-23T23:15:08;20.60;99.90
2757;DHT22;1386;50.862;6.494;2022-07-23T23:17:35;20.60;99.90
2757;DHT22;1386;50.862;6.494;2022-07-23T23:20:05;20.60;99.90
2757;DHT22;1386;50.862;6.494;2022-07-23T23:22:32;20.50;99.90
2757;DHT22;1386;50.862;6.494;2022-07-23T23:24:59;20.50;99.90
2757;DHT22;1386;50.862;6.494;2022-07-23T23:27:26;20.40;99.90
2757;DHT22;1386;50.862;6.494;2022-07-23T23:29:53;20.50;99.90
2757;DHT22;1386;50.862;6.494;2022-07-23T23:32:19;20.40;99.90
2757;DHT22;1386;50.862;6.494;2022-07-23T23:34:46;20.40;99.90
2757;DHT22;1386;50.862;6.494;2022-07-23T23:37:14;20.40;99.90
2757;DHT22;1386;50.862;6.494;2022-07-23T23:39:41;20.40;99.90
2757;DHT22;1386;50.862;6.494;2022-07-23T23:42:08;20.40;99.90
2757;DHT22;1386;50.862;6.494;2022-07-23T23:44:35;20.30;99.90
2757;DHT22;1386;50.862;6.494;2022-07-23T23:47:02;20.30;99.90
2757;DHT22;1386;50.862;6.494;2022-07-23T23:49:29;20.20;99.90
2757;DHT22;1386;50.862;6.494;2022-07-23T23:51:56;20.20;99.90
2757;DHT22;1386;50.862;6.494;2022-07-23T23:54:24;20.20;99.90
2757;DHT22;1386;50.862;6.494;2022-07-23T23:56:51;20.20;99.90
2757;DHT22;1386;50.862;6.494;2022-07-23T23:59:18;20.20;99.90
